Time;durP1;ratioP1;P1;durP2;ratioP2;P2;SDS_P1;SDS_P2;PMS_P1;PMS_P2;Temp;Humidity;BMP_temperature;BMP_pressure;BME280_temperature;BME280_humidity;BME280_pressure;Samples;Min_cycle;Max_cycle;Signal;HPM_P1;HPM_P2
2023/10/25 00:02:05;;;;;;;0.00;0.00;;;9.30;99.90;;;;;;5092279;28;20631;-64
2023/10/25 00:04:31;;;;;;;0.30;0.30;;;9.30;99.90;;;;;;5089803;28;20188;-64
2023/10/25 00:06:56;;;;;;;0.00;0.00;;;9.20;99.90;;;;;;5090992;28;20242;-64
2023/10/25 00:09:22;;;;;;;0.00;0.00;;;9.20;99.90;;;;;;5091203;28;20204;-64
2023/10/25 00:11:47;;;;;;;0.05;0.05;;;9.20;99.90;;;;;;5090734;28;20175;-64
2023/10/25 00:14:13;;;;;;;0.13;0.13;;;9.20;99.90;;;;;;5092187;28;20219;-64
2023/10/25 00:16:39;;;;;;;0.00;0.00;;;9.20;99.90;;;;;;5091827;28;20565;-64
2023/10/25 00:19:04;;;;;;;0.00;0.00;;;9.20;99.90;;;;;;5091668;28;20204;-64
2023/10/25 00:21:30;;;;;;;0.00;0.00;;;9.20;99.90;;;;;;5091805;28;20225;-64
2023/10/25 00:23:55;;;;;;;0.00;0.00;;;9.20;99.90;;;;;;5092322;28;20547;-64
2023/10/25 00:26:21;;;;;;;0.00;0.00;;;9.20;99.90;;;;;;5092239;28;20234;-63
2023/10/25 00:28:46;;;;;;;0.00;0.00;;;9.20;99.90;;;;;;5092114;28;20191;-64
2023/10/25 00:31:12;;;;;;;0.00;0.00;;;9.20;99.90;;;;;;5091645;28;20259;-64
2023/10/25 00:33:37;;;;;;;0.00;0.00;;;9.20;99.90;;;;;;5091816;28;20300;-64
2023/10/25 00:36:04;;;;;;;0.00;0.00;;;9.20;99.90;;;;;;5091013;28;20764;-64
2023/10/25 00:38:29;;;;;;;0.00;0.00;;;9.20;99.90;;;;;;5091699;28;20198;-64
2023/10/25 00:40:55;;;;;;;0.00;0.00;;;9.20;99.90;;;;;;5091702;28;20902;-64
2023/10/25 00:43:21;;;;;;;0.00;0.00;;;9.20;99.90;;;;;;5091499;28;20178;-64
2023/10/25 00:46:10;;;;;;;0.00;0.00;;;9.20;99.90;;;;;;5091623;28;20558;-64
2023/10/25 00:48:36;;;;;;;0.00;0.00;;;9.20;99.90;;;;;;5088924;28;20184;-64
2023/10/25 00:51:02;;;;;;;0.00;0.00;;;9.20;99.90;;;;;;5091285;28;20662;-64
2023/10/25 00:53:31;;;;;;;0.00;0.00;;;9.20;99.90;;;;;;5091882;28;20228;-64
2023/10/25 00:55:58;;;;;;;0.00;0.00;;;9.20;99.90;;;;;;5091096;28;20184;-65
2023/10/25 00:58:24;;;;;;;0.00;0.00;;;9.20;99.90;;;;;;5091240;28;20191;-64
2023/10/25 01:00:52;;;;;;;0.00;0.00;;;9.20;99.90;;;;;;5091531;28;20176;-64
2023/10/25 01:03:18;;;;;;;0.00;0.00;;;9.20;99.90;;;;;;5091267;28;20180;-65
2023/10/25 01:05:44;;;;;;;0.00;0.00;;;9.20;99.90;;;;;;5091200;28;20189;-64
2023/10/25 01:08:09;;;;;;;0.00;0.00;;;9.20;99.90;;;;;;5091269;28;20184;-64
2023/10/25 01:10:36;;;;;;;0.00;0.00;;;9.20;99.90;;;;;;5091466;28;20262;-65
2023/10/25 01:13:02;;;;;;;0.50;0.50;;;9.20;99.90;;;;;;5091123;28;20187;-64
2023/10/25 01:15:27;;;;;;;0.00;0.00;;;9.20;99.90;;;;;;5091295;28;20191;-64
2023/10/25 01:17:53;;;;;;;0.00;0.00;;;9.30;99.90;;;;;;5090992;28;20184;-65
2023/10/25 01:20:19;;;;;;;0.00;0.00;;;9.30;99.90;;;;;;5087274;28;20260;-65
2023/10/25 01:22:47;;;;;;;0.00;0.00;;;9.30;99.90;;;;;;5090468;28;20306;-65
2023/10/25 01:25:13;;;;;;;0.00;0.00;;;9.30;99.90;;;;;;5089816;28;20184;-64
2023/10/25 01:27:38;;;;;;;0.00;0.00;;;9.20;99.90;;;;;;5090773;28;20184;-64
2023/10/25 01:30:05;;;;;;;0.00;0.00;;;9.30;99.90;;;;;;5090968;28;20187;-65
2023/10/25 01:32:30;;;;;;;0.00;0.00;;;9.30;99.90;;;;;;5090185;28;20231;-65
2023/10/25 01:34:56;;;;;;;0.00;0.00;;;9.30;99.90;;;;;;5091103;28;20605;-65
2023/10/25 01:37:21;;;;;;;0.00;0.00;;;9.20;99.90;;;;;;5090666;28;20215;-65
2023/10/25 01:39:47;;;;;;;0.00;0.00;;;9.20;99.90;;;;;;5090520;28;20271;-65
2023/10/25 01:42:12;;;;;;;0.00;0.00;;;9.10;99.90;;;;;;5089575;28;20208;-65
2023/10/25 01:44:38;;;;;;;0.00;0.00;;;9.10;99.90;;;;;;5090784;28;20864;-65
2023/10/25 01:47:03;;;;;;;0.00;0.00;;;9.10;99.90;;;;;;5089898;28;20192;-65
2023/10/25 01:49:29;;;;;;;0.00;0.00;;;9.10;99.90;;;;;;5097573;28;20211;-65
2023/10/25 01:51:54;;;;;;;0.00;0.00;;;9.00;99.90;;;;;;5087918;28;20222;-64
2023/10/25 01:54:20;;;;;;;0.00;0.00;;;9.00;99.90;;;;;;5097546;28;20231;-64
2023/10/25 01:56:45;;;;;;;0.00;0.00;;;9.00;99.90;;;;;;5097458;28;20262;-64
2023/10/25 01:59:11;;;;;;;0.00;0.00;;;9.00;99.90;;;;;;5097245;28;20176;-64
2023/10/25 02:01:36;;;;;;;0.00;0.00;;;9.00;99.90;;;;;;5097313;28;20172;-64
2023/10/25 02:04:02;;;;;;;0.08;0.08;;;9.00;99.90;;;;;;5097295;28;20180;-65
2023/10/25 02:06:28;;;;;;;0.00;0.00;;;8.90;99.90;;;;;;5097553;28;20175;-65
2023/10/25 02:08:53;;;;;;;0.00;0.00;;;8.90;99.90;;;;;;5097517;28;20184;-66
2023/10/25 02:11:20;;;;;;;0.00;0.00;;;8.90;99.90;;;;;;5097355;28;20259;-64
2023/10/25 02:13:45;;;;;;;0.00;0.00;;;8.90;99.90;;;;;;5096787;28;20559;-63
2023/10/25 02:16:15;;;;;;;0.00;0.00;;;8.90;99.90;;;;;;5096293;28;20263;-64
2023/10/25 02:18:41;;;;;;;0.00;0.00;;;8.80;99.90;;;;;;5097469;28;20187;-64
2023/10/25 02:21:07;;;;;;;0.00;0.00;;;8.80;99.90;;;;;;5097128;28;20180;-64
2023/10/25 02:23:33;;;;;;;0.00;0.00;;;8.80;99.90;;;;;;5097120;28;20202;-64
2023/10/25 02:25:58;;;;;;;0.00;0.00;;;8.80;99.90;;;;;;5097597;28;20179;-64
2023/10/25 02:28:24;;;;;;;0.00;0.00;;;8.70;99.90;;;;;;5097165;28;20188;-65
2023/10/25 02:30:49;;;;;;;0.00;0.00;;;8.70;99.90;;;;;;5097503;28;20187;-64
2023/10/25 02:33:15;;;;;;;0.13;0.13;;;8.70;99.90;;;;;;5096758;28;20230;-65
2023/10/25 02:35:40;;;;;;;0.00;0.00;;;8.70;99.90;;;;;;5097177;28;20229;-65
2023/10/25 02:38:06;;;;;;;0.00;0.00;;;8.70;99.90;;;;;;5097094;28;20195;-64
2023/10/25 02:40:31;;;;;;;0.00;0.00;;;8.70;99.90;;;;;;5096845;28;20188;-64
2023/10/25 02:42:57;;;;;;;0.00;0.00;;;8.70;99.90;;;;;;5096873;28;20168;-64
2023/10/25 02:45:22;;;;;;;0.00;0.00;;;8.80;99.90;;;;;;5096512;28;20183;-64
2023/10/25 02:47:48;;;;;;;0.00;0.00;;;8.80;99.90;;;;;;5096974;28;20263;-64
2023/10/25 02:50:15;;;;;;;0.00;0.00;;;8.80;99.90;;;;;;5096857;28;20266;-64
2023/10/25 02:52:43;;;;;;;0.30;0.30;;;8.80;99.90;;;;;;5096794;28;20191;-64
2023/10/25 02:55:09;;;;;;;0.55;0.47;;;8.80;99.90;;;;;;5097105;28;20210;-64
2023/10/25 02:57:34;;;;;;;0.00;0.00;;;8.80;99.90;;;;;;5095428;28;20180;-64
2023/10/25 03:00:00;;;;;;;0.00;0.00;;;8.80;99.90;;;;;;5093817;28;20184;-65
2023/10/25 03:02:25;;;;;;;0.00;0.00;;;8.80;99.90;;;;;;5093563;28;20222;-64
2023/10/25 03:04:51;;;;;;;0.00;0.00;;;8.80;99.90;;;;;;5093600;28;20183;-64
2023/10/25 03:07:16;;;;;;;0.00;0.00;;;8.80;99.90;;;;;;5090365;28;20191;-64
2023/10/25 03:09:42;;;;;;;0.00;0.00;;;8.80;99.90;;;;;;5093579;28;20262;-64
2023/10/25 03:12:08;;;;;;;0.10;0.10;;;8.80;99.90;;;;;;5093877;28;20168;-64
2023/10/25 03:14:33;;;;;;;0.00;0.00;;;8.80;99.90;;;;;;5093671;28;20216;-65
2023/10/25 03:16:59;;;;;;;0.00;0.00;;;8.90;99.90;;;;;;5093697;28;20175;-65
2023/10/25 03:19:28;;;;;;;0.22;0.22;;;8.80;99.90;;;;;;5091800;28;20709;-65
2023/10/25 03:21:54;;;;;;;0.32;0.32;;;8.90;99.90;;;;;;5093091;28;20184;-65
2023/10/25 03:24:20;;;;;;;0.00;0.00;;;8.90;99.90;;;;;;5093312;28;20551;-65
2023/10/25 03:26:45;;;;;;;0.10;0.10;;;9.00;99.90;;;;;;5093300;28;20172;-64
2023/10/25 03:29:11;;;;;;;0.00;0.00;;;9.00;99.90;;;;;;5093470;28;20184;-65
2023/10/25 03:31:38;;;;;;;0.00;0.00;;;9.10;99.90;;;;;;5092382;28;20179;-65
2023/10/25 03:34:04;;;;;;;0.00;0.00;;;9.10;99.90;;;;;;5092417;28;20920;-64
2023/10/25 03:36:29;;;;;;;0.28;0.28;;;9.10;99.90;;;;;;5092707;28;20185;-64
2023/10/25 03:38:55;;;;;;;0.00;0.00;;;9.10;99.90;;;;;;5092918;28;20191;-64
2023/10/25 03:41:21;;;;;;;0.00;0.00;;;9.10;99.90;;;;;;5093154;28;20176;-65
2023/10/25 03:43:46;;;;;;;0.00;0.00;;;9.10;99.90;;;;;;5092665;28;20237;-64
2023/10/25 03:46:12;;;;;;;0.03;0.03;;;9.10;99.90;;;;;;5092832;28;20176;-65
2023/10/25 03:48:38;;;;;;;0.00;0.00;;;9.10;99.90;;;;;;5092610;28;20246;-66
2023/10/25 03:51:08;;;;;;;0.00;0.00;;;9.10;99.90;;;;;;5091891;28;20172;-62
2023/10/25 03:53:34;;;;;;;0.00;0.00;;;9.10;99.90;;;;;;5092928;28;20729;-63
2023/10/25 03:56:00;;;;;;;0.00;0.00;;;9.10;99.90;;;;;;5093503;28;20229;-64
2023/10/25 03:58:26;;;;;;;0.00;0.00;;;9.10;99.90;;;;;;5093019;28;20259;-64
2023/10/25 04:01:01;;;;;;;0.10;0.10;;;9.10;99.90;;;;;;5093380;28;20174;-62
2023/10/25 04:03:27;;;;;;;0.00;0.00;;;9.10;99.90;;;;;;5092822;28;20197;-62
2023/10/25 04:05:53;;;;;;;0.60;0.60;;;9.10;99.90;;;;;;5092551;28;20628;-66
2023/10/25 04:08:18;;;;;;;0.00;0.00;;;9.10;99.90;;;;;;5092511;28;20255;-68
2023/10/25 04:10:51;;;;;;;0.00;0.00;;;9.10;99.90;;;;;;5092578;28;20728;-64
2023/10/25 04:13:18;;;;;;;0.00;0.00;;;9.10;99.90;;;;;;5090714;28;20537;-65
2023/10/25 04:15:56;;;;;;;0.00;0.00;;;9.10;99.90;;;;;;5092609;28;20247;-64
2023/10/25 04:18:23;;;;;;;0.00;0.00;;;9.10;99.90;;;;;;5092744;28;20543;-65
2023/10/25 04:20:48;;;;;;;0.20;0.20;;;9.10;99.90;;;;;;5092761;28;20252;-66
2023/10/25 04:23:14;;;;;;;0.00;0.00;;;9.10;99.90;;;;;;5092854;28;20176;-64
2023/10/25 04:25:40;;;;;;;0.00;0.00;;;9.10;99.90;;;;;;5092714;28;20172;-64
2023/10/25 04:28:05;;;;;;;0.00;0.00;;;9.10;99.90;;;;;;5092715;28;20259;-64
2023/10/25 04:30:32;;;;;;;0.00;0.00;;;9.10;99.90;;;;;;5092707;28;20172;-65
2023/10/25 04:32:58;;;;;;;0.00;0.00;;;9.10;99.90;;;;;;5092525;28;20232;-65
2023/10/25 04:35:24;;;;;;;0.00;0.00;;;9.10;99.90;;;;;;5092288;28;20222;-64
2023/10/25 04:37:49;;;;;;;0.00;0.00;;;9.10;99.90;;;;;;5091416;28;20243;-64
2023/10/25 04:40:15;;;;;;;0.00;0.00;;;9.10;99.90;;;;;;5091231;28;20176;-65
2023/10/25 04:42:40;;;;;;;0.00;0.00;;;9.10;99.90;;;;;;5092337;28;20199;-64
2023/10/25 04:45:06;;;;;;;0.00;0.00;;;9.10;99.90;;;;;;5092462;28;20179;-64
2023/10/25 04:47:32;;;;;;;0.03;0.03;;;9.10;99.90;;;;;;5092442;28;20247;-63
2023/10/25 04:50:01;;;;;;;0.00;0.00;;;9.00;99.90;;;;;;5092490;28;20271;-63
2023/10/25 04:52:26;;;;;;;0.00;0.00;;;9.10;99.90;;;;;;5092228;28;20172;-64
2023/10/25 04:54:52;;;;;;;0.00;0.00;;;9.10;99.90;;;;;;5092235;28;20211;-63
2023/10/25 04:57:18;;;;;;;0.00;0.00;;;9.00;99.90;;;;;;5092234;28;20226;-63
2023/10/25 04:59:43;;;;;;;0.00;0.00;;;9.00;99.90;;;;;;5092140;28;20175;-63
2023/10/25 05:02:09;;;;;;;0.20;0.20;;;9.00;99.90;;;;;;5092229;28;20184;-64
2023/10/25 05:04:34;;;;;;;0.00;0.00;;;9.00;99.90;;;;;;5092045;28;20180;-64
2023/10/25 05:07:00;;;;;;;0.00;0.00;;;9.00;99.90;;;;;;5092024;28;20233;-64
2023/10/25 05:09:26;;;;;;;0.00;0.00;;;9.00;99.90;;;;;;5091895;28;20580;-64
2023/10/25 05:12:06;;;;;;;0.00;0.00;;;9.10;99.90;;;;;;5091999;28;20176;-64
2023/10/25 05:14:33;;;;;;;0.00;0.00;;;9.10;99.90;;;;;;5091874;28;20256;-64
2023/10/25 05:16:59;;;;;;;0.00;0.00;;;9.20;99.90;;;;;;5091997;28;20168;-64
2023/10/25 05:19:25;;;;;;;0.10;0.10;;;9.20;99.90;;;;;;5091783;28;20184;-63
2023/10/25 05:21:51;;;;;;;0.00;0.00;;;9.20;99.90;;;;;;5091912;28;20195;-64
2023/10/25 05:24:17;;;;;;;0.00;0.00;;;9.20;99.90;;;;;;5091525;28;20180;-64
2023/10/25 05:26:44;;;;;;;0.00;0.00;;;9.10;99.90;;;;;;5091609;28;20179;-65
2023/10/25 05:29:10;;;;;;;0.00;0.00;;;9.10;99.90;;;;;;5091856;28;20172;-65
2023/10/25 05:31:40;;;;;;;0.00;0.00;;;9.10;99.90;;;;;;5091441;28;20213;-65
2023/10/25 05:34:07;;;;;;;0.00;0.00;;;9.10;99.90;;;;;;5090362;28;20216;-64
2023/10/25 05:36:33;;;;;;;0.00;0.00;;;9.10;99.90;;;;;;5091638;28;20176;-64
2023/10/25 05:39:00;;;;;;;0.00;0.00;;;9.10;99.90;;;;;;5091762;28;20199;-64
2023/10/25 05:41:29;;;;;;;0.00;0.00;;;9.00;99.90;;;;;;5091702;28;20168;-64
2023/10/25 05:44:03;;;;;;;0.00;0.00;;;9.00;99.90;;;;;;5091573;28;20172;-65
2023/10/25 05:46:29;;;;;;;0.00;0.00;;;9.10;99.90;;;;;;5091592;28;20249;-64
2023/10/25 05:48:54;;;;;;;0.00;0.00;;;9.00;99.90;;;;;;5091608;28;20184;-64
2023/10/25 05:51:20;;;;;;;0.00;0.00;;;9.00;99.90;;;;;;5091385;28;20190;-64
2023/10/25 05:53:47;;;;;;;0.00;0.00;;;9.00;99.90;;;;;;5090180;28;20212;-64
2023/10/25 05:56:13;;;;;;;0.00;0.00;;;9.10;99.90;;;;;;5091499;28;20180;-65
2023/10/25 05:58:39;;;;;;;0.00;0.00;;;9.10;99.90;;;;;;5090140;28;20927;-63
2023/10/25 06:01:08;;;;;;;0.22;0.22;;;9.10;99.90;;;;;;5091397;28;20196;-64
2023/10/25 06:03:35;;;;;;;0.00;0.00;;;9.10;99.90;;;;;;5091431;28;20767;-64
2023/10/25 06:06:01;;;;;;;0.00;0.00;;;9.10;99.90;;;;;;5091471;28;20180;-64
2023/10/25 06:08:27;;;;;;;0.00;0.00;;;9.20;99.90;;;;;;5091321;28;20561;-64
2023/10/25 06:10:53;;;;;;;0.00;0.00;;;9.20;99.90;;;;;;5091408;28;20180;-64
2023/10/25 06:13:19;;;;;;;0.00;0.00;;;9.30;99.90;;;;;;5091048;28;20267;-64
2023/10/25 06:15:45;;;;;;;0.00;0.00;;;9.30;99.90;;;;;;5091334;28;20263;-63
2023/10/25 06:18:11;;;;;;;0.00;0.00;;;9.40;99.90;;;;;;5090239;28;20169;-64
2023/10/25 06:20:37;;;;;;;0.00;0.00;;;9.50;99.90;;;;;;5091284;28;20175;-65
2023/10/25 06:23:02;;;;;;;0.00;0.00;;;9.50;99.90;;;;;;5091293;28;20172;-64
2023/10/25 06:25:32;;;;;;;0.00;0.00;;;9.60;99.90;;;;;;5091180;28;20183;-64
2023/10/25 06:27:59;;;;;;;0.00;0.00;;;9.70;99.90;;;;;;5091312;28;20176;-64
2023/10/25 06:30:28;;;;;;;0.00;0.00;;;9.70;99.90;;;;;;5091147;28;20168;-64
2023/10/25 06:32:56;;;;;;;0.00;0.00;;;9.80;99.90;;;;;;5091071;28;20231;-64
2023/10/25 06:35:22;;;;;;;0.00;0.00;;;9.80;99.90;;;;;;5092979;28;20204;-65
2023/10/25 06:37:48;;;;;;;0.00;0.00;;;9.90;99.90;;;;;;5095126;28;20277;-65
2023/10/25 06:40:14;;;;;;;0.00;0.00;;;10.00;99.90;;;;;;5094936;28;20190;-65
2023/10/25 06:42:40;;;;;;;0.30;0.20;;;10.00;99.90;;;;;;5094762;28;20185;-65
2023/10/25 06:45:06;;;;;;;0.00;0.00;;;10.00;99.90;;;;;;5094802;28;20262;-65
2023/10/25 06:47:32;;;;;;;0.00;0.00;;;10.10;99.90;;;;;;5093557;28;20172;-65
2023/10/25 06:49:58;;;;;;;0.00;0.00;;;10.10;99.90;;;;;;5093563;28;20180;-64
2023/10/25 06:52:23;;;;;;;0.00;0.00;;;10.20;99.90;;;;;;5094562;28;20177;-65
2023/10/25 06:54:49;;;;;;;0.00;0.00;;;10.20;99.90;;;;;;5094579;28;20298;-64
2023/10/25 06:57:15;;;;;;;0.00;0.00;;;10.30;99.90;;;;;;5094610;28;20276;-64
2023/10/25 06:59:41;;;;;;;0.00;0.00;;;10.30;99.90;;;;;;5094410;28;20172;-64
2023/10/25 07:02:22;;;;;;;0.00;0.00;;;10.30;99.90;;;;;;5094522;28;20579;-64
2023/10/25 07:04:54;;;;;;;0.00;0.00;;;10.40;99.90;;;;;;5094526;28;20507;-64
2023/10/25 07:07:23;;;;;;;0.00;0.00;;;10.80;99.90;;;;;;5094301;28;20172;-64
2023/10/25 07:09:48;;;;;;;0.00;0.00;;;11.20;99.90;;;;;;5094436;28;20620;-64
2023/10/25 07:12:14;;;;;;;0.00;0.00;;;11.40;99.90;;;;;;5094243;28;20183;-64
2023/10/25 07:14:42;;;;;;;0.00;0.00;;;11.30;99.90;;;;;;5094026;28;20216;-65
2023/10/25 07:17:07;;;;;;;0.00;0.00;;;11.30;99.90;;;;;;5094249;28;20180;-65
2023/10/25 07:19:33;;;;;;;0.00;0.00;;;11.30;99.90;;;;;;5094158;28;20195;-64
2023/10/25 07:21:58;;;;;;;0.00;0.00;;;11.20;99.90;;;;;;5076051;28;20172;-64
2023/10/25 07:24:23;;;;;;;0.00;0.00;;;11.20;99.90;;;;;;5094012;28;20180;-64
2023/10/25 07:26:49;;;;;;;0.00;0.00;;;11.50;99.90;;;;;;5094126;28;20255;-64
2023/10/25 07:29:14;;;;;;;0.13;0.13;;;11.60;99.90;;;;;;5093908;28;20243;-64
2023/10/25 07:31:40;;;;;;;0.00;0.00;;;11.70;99.90;;;;;;5093453;28;20172;-64
2023/10/25 07:34:05;;;;;;;0.00;0.00;;;12.00;99.90;;;;;;5093881;28;20255;-64
2023/10/25 07:36:32;;;;;;;0.00;0.00;;;12.10;99.90;;;;;;5093827;28;20196;-64
2023/10/25 07:38:59;;;;;;;0.00;0.00;;;12.10;99.90;;;;;;5093893;28;20184;-64
2023/10/25 07:41:25;;;;;;;0.00;0.00;;;11.90;99.90;;;;;;5093699;28;20250;-64
2023/10/25 07:43:50;;;;;;;0.00;0.00;;;11.60;99.90;;;;;;5092547;28;20707;-64
2023/10/25 07:46:16;;;;;;;0.00;0.00;;;11.50;99.90;;;;;;5093107;28;20176;-64
2023/10/25 07:48:42;;;;;;;0.00;0.00;;;11.50;99.90;;;;;;5092223;28;20204;-64
2023/10/25 07:51:07;;;;;;;0.08;0.08;;;11.50;99.90;;;;;;5093761;28;20575;-64
2023/10/25 07:53:33;;;;;;;0.00;0.00;;;11.80;99.90;;;;;;5093423;28;20291;-65
2023/10/25 07:56:02;;;;;;;0.00;0.00;;;12.10;99.90;;;;;;5093443;28;20226;-64
2023/10/25 07:58:28;;;;;;;0.00;0.00;;;12.60;99.90;;;;;;5093378;28;20577;-64
2023/10/25 08:00:53;;;;;;;0.00;0.00;;;13.10;99.90;;;;;;5093425;28;20176;-64
2023/10/25 08:03:19;;;;;;;0.00;0.00;;;13.60;99.90;;;;;;5092071;28;20670;-64
2023/10/25 08:05:44;;;;;;;0.00;0.00;;;13.80;99.90;;;;;;5093420;28;20211;-64
2023/10/25 08:08:10;;;;;;;0.10;0.10;;;13.90;99.90;;;;;;5092041;28;20624;-64
2023/10/25 08:10:36;;;;;;;0.00;0.00;;;13.60;99.90;;;;;;5091834;28;20212;-64
2023/10/25 08:13:01;;;;;;;0.00;0.00;;;13.70;99.90;;;;;;5093055;28;20538;-64
2023/10/25 08:15:27;;;;;;;0.00;0.00;;;13.70;99.90;;;;;;5092918;28;20261;-64
2023/10/25 08:17:53;;;;;;;0.17;0.15;;;13.70;99.90;;;;;;5093097;28;20175;-65
2023/10/25 08:20:19;;;;;;;0.00;0.00;;;13.60;99.90;;;;;;5092990;28;20661;-64
2023/10/25 08:22:44;;;;;;;0.00;0.00;;;13.50;99.90;;;;;;5092975;28;20175;-64
2023/10/25 08:25:10;;;;;;;0.22;0.22;;;13.50;99.90;;;;;;5091740;28;20195;-65
2023/10/25 08:27:36;;;;;;;0.00;0.00;;;13.40;99.90;;;;;;5091506;28;20740;-64
2023/10/25 08:30:03;;;;;;;0.00;0.00;;;13.40;99.90;;;;;;5092856;28;20172;-64
2023/10/25 08:32:28;;;;;;;0.00;0.00;;;13.30;99.90;;;;;;5092476;28;20583;-64
2023/10/25 08:34:54;;;;;;;0.00;0.00;;;13.30;99.90;;;;;;5092711;28;20219;-64
2023/10/25 08:37:19;;;;;;;0.00;0.00;;;13.30;99.90;;;;;;5092643;28;20180;-64
2023/10/25 08:39:45;;;;;;;0.00;0.00;;;13.50;99.90;;;;;;5091396;28;20258;-64
2023/10/25 08:42:14;;;;;;;0.00;0.00;;;13.70;99.90;;;;;;5092707;28;20172;-64
2023/10/25 08:44:43;;;;;;;0.00;0.00;;;13.90;99.90;;;;;;5092394;28;20203;-64
2023/10/25 08:47:11;;;;;;;0.00;0.00;;;14.00;99.90;;;;;;5092549;28;20174;-65
2023/10/25 08:49:37;;;;;;;0.00;0.00;;;14.00;99.90;;;;;;5091187;28;20263;-64
2023/10/25 08:52:03;;;;;;;0.00;0.00;;;13.80;99.90;;;;;;5092509;28;20262;-65
2023/10/25 08:54:29;;;;;;;0.10;0.10;;;13.70;99.90;;;;;;5092407;28;20296;-63
2023/10/25 08:56:55;;;;;;;0.00;0.00;;;13.60;99.90;;;;;;5091712;28;20647;-63
2023/10/25 08:59:21;;;;;;;0.00;0.00;;;13.50;99.90;;;;;;5091939;28;20202;-64
2023/10/25 09:01:47;;;;;;;0.00;0.00;;;13.40;99.90;;;;;;5092357;28;20176;-65
2023/10/25 09:04:13;;;;;;;0.00;0.00;;;13.20;99.90;;;;;;5092361;28;20297;-65
2023/10/25 09:06:38;;;;;;;0.00;0.00;;;13.10;99.90;;;;;;5092130;28;20687;-65
2023/10/25 09:09:07;;;;;;;0.00;0.00;;;13.10;99.90;;;;;;5092213;28;20643;-65
2023/10/25 09:11:59;;;;;;;0.00;0.00;;;13.00;99.90;;;;;;5091997;28;20179;-65
2023/10/25 09:14:24;;;;;;;0.00;0.00;;;12.90;99.90;;;;;;5089778;28;20232;-65
2023/10/25 09:16:50;;;;;;;0.00;0.00;;;12.80;99.90;;;;;;5092090;28;20172;-64
2023/10/25 09:19:20;;;;;;;0.00;0.00;;;12.80;99.90;;;;;;5091951;28;20179;-64
2023/10/25 09:21:46;;;;;;;0.00;0.00;;;12.70;99.90;;;;;;5091882;28;20553;-64
2023/10/25 09:24:11;;;;;;;0.00;0.00;;;12.60;99.90;;;;;;5091989;28;20168;-64
2023/10/25 09:26:39;;;;;;;0.00;0.00;;;12.60;99.90;;;;;;5091914;28;20184;-64
2023/10/25 09:29:06;;;;;;;0.00;0.00;;;12.50;99.90;;;;;;5091829;28;20180;-63
2023/10/25 09:31:32;;;;;;;0.00;0.00;;;12.50;99.90;;;;;;5091540;28;20222;-64
2023/10/25 09:33:58;;;;;;;0.00;0.00;;;12.50;99.90;;;;;;5091673;28;20203;-64
2023/10/25 09:36:25;;;;;;;0.00;0.00;;;12.40;99.90;;;;;;5091627;28;20247;-62
2023/10/25 09:38:51;;;;;;;0.00;0.00;;;12.40;99.90;;;;;;5091808;28;20168;-64
2023/10/25 09:41:18;;;;;;;0.00;0.00;;;12.40;99.90;;;;;;5091596;28;20176;-64
2023/10/25 09:43:47;;;;;;;0.00;0.00;;;12.50;99.90;;;;;;5091576;28;20172;-64
2023/10/25 09:46:19;;;;;;;0.00;0.00;;;12.50;99.90;;;;;;5091676;28;20168;-64
2023/10/25 09:49:06;;;;;;;0.00;0.00;;;12.60;99.90;;;;;;5091591;28;20180;-64
2023/10/25 09:51:42;;;;;;;0.00;0.00;;;12.70;99.90;;;;;;5091566;28;20176;-63
2023/10/25 09:54:12;;;;;;;0.00;0.00;;;12.70;99.90;;;;;;5091633;28;20664;-64
2023/10/25 09:56:38;;;;;;;0.00;0.00;;;12.70;99.90;;;;;;5091645;28;20191;-64
2023/10/25 09:59:10;;;;;;;0.00;0.00;;;12.70;99.90;;;;;;5091618;28;20172;-64
2023/10/25 10:01:38;;;;;;;0.22;0.10;;;12.80;99.90;;;;;;5091431;28;20168;-65
2023/10/25 10:04:41;;;;;;;0.00;0.00;;;12.80;99.90;;;;;;5091357;28;20758;-65
2023/10/25 10:07:20;;;;;;;0.00;0.00;;;12.90;99.90;;;;;;5091614;28;20199;-63
2023/10/25 10:10:23;;;;;;;0.00;0.00;;;12.90;99.90;;;;;;5094353;28;20174;-64
2023/10/25 10:12:49;;;;;;;0.00;0.00;;;12.90;99.90;;;;;;5088868;28;20194;-64
2023/10/25 10:15:16;;;;;;;0.00;0.00;;;13.00;99.90;;;;;;5095328;28;20216;-64
2023/10/25 10:17:45;;;;;;;0.00;0.00;;;13.10;99.90;;;;;;5094004;28;20184;-64
2023/10/25 10:20:28;;;;;;;0.00;0.00;;;13.20;99.90;;;;;;5095396;28;20165;-63
2023/10/25 10:23:04;;;;;;;0.00;0.00;;;13.30;99.90;;;;;;5095414;28;20706;-63
2023/10/25 10:25:45;;;;;;;0.00;0.00;;;13.30;99.90;;;;;;5093938;28;20669;-63
2023/10/25 10:28:11;;;;;;;0.00;0.00;;;13.30;99.90;;;;;;5095225;28;20765;-63
2023/10/25 10:30:40;;;;;;;0.00;0.00;;;13.30;99.90;;;;;;5095051;28;20278;-64
2023/10/25 10:33:11;;;;;;;0.00;0.00;;;13.30;99.90;;;;;;5094915;28;20220;-63
2023/10/25 10:35:49;;;;;;;0.00;0.00;;;13.30;99.90;;;;;;5094926;28;20220;-64
2023/10/25 10:38:15;;;;;;;0.00;0.00;;;13.30;99.90;;;;;;5095135;28;20172;-63
2023/10/25 10:40:40;;;;;;;0.00;0.00;;;13.30;99.90;;;;;;5094840;28;20650;-63
2023/10/25 10:43:07;;;;;;;0.00;0.00;;;13.40;99.90;;;;;;5094914;28;20173;-64
2023/10/25 10:45:33;;;;;;;0.00;0.00;;;13.40;99.90;;;;;;5094775;28;20694;-64
2023/10/25 10:48:21;;;;;;;0.00;0.00;;;13.50;99.90;;;;;;5093411;28;20184;-64
2023/10/25 10:50:49;;;;;;;0.00;0.00;;;13.60;99.90;;;;;;5094864;28;20172;-64
2023/10/25 10:53:14;;;;;;;0.00;0.00;;;13.70;99.90;;;;;;5094837;28;20184;-65
2023/10/25 10:55:40;;;;;;;0.00;0.00;;;13.70;99.90;;;;;;5094551;28;20717;-63
2023/10/25 10:58:07;;;;;;;0.00;0.00;;;13.70;99.90;;;;;;5094738;28;20199;-64
2023/10/25 11:00:33;;;;;;;0.00;0.00;;;13.70;99.90;;;;;;5094598;28;20199;-64
2023/10/25 11:03:02;;;;;;;0.00;0.00;;;13.80;99.90;;;;;;5094548;28;20200;-64
2023/10/25 11:05:27;;;;;;;0.00;0.00;;;13.80;99.90;;;;;;5094430;28;20245;-64
2023/10/25 11:07:56;;;;;;;0.00;0.00;;;13.90;99.90;;;;;;5094569;28;20219;-64
2023/10/25 11:10:22;;;;;;;0.00;0.00;;;13.90;99.90;;;;;;5094279;28;20251;-64
2023/10/25 11:12:47;;;;;;;0.00;0.00;;;14.00;99.90;;;;;;5094298;28;20306;-64
2023/10/25 11:15:13;;;;;;;0.00;0.00;;;14.00;99.90;;;;;;5094265;28;20239;-64
2023/10/25 11:17:39;;;;;;;0.00;0.00;;;14.10;99.90;;;;;;5094165;28;20206;-64
2023/10/25 11:20:06;;;;;;;0.00;0.00;;;14.10;99.90;;;;;;5093415;28;20199;-64
2023/10/25 11:22:32;;;;;;;0.20;0.20;;;14.20;99.90;;;;;;5094118;28;20171;-64
2023/10/25 11:24:58;;;;;;;0.00;0.00;;;14.40;99.90;;;;;;5094210;28;20180;-65
2023/10/25 11:27:34;;;;;;;0.00;0.00;;;14.50;99.90;;;;;;5094014;28;20491;-64
2023/10/25 11:30:00;;;;;;;0.00;0.00;;;14.50;99.90;;;;;;5094001;28;20264;-64
2023/10/25 11:32:29;;;;;;;0.00;0.00;;;14.60;99.90;;;;;;5093657;28;20745;-64
2023/10/25 11:34:56;;;;;;;0.00;0.00;;;14.60;99.90;;;;;;5093781;28;20216;-64
2023/10/25 11:37:22;;;;;;;0.00;0.00;;;14.70;99.90;;;;;;5093669;28;20176;-64
2023/10/25 11:39:55;;;;;;;0.00;0.00;;;14.70;99.90;;;;;;5093872;28;20259;-65
2023/10/25 11:42:20;;;;;;;0.00;0.00;;;14.70;99.90;;;;;;5093651;28;20172;-64
2023/10/25 11:44:46;;;;;;;0.00;0.00;;;14.70;99.90;;;;;;5093689;28;20176;-64
2023/10/25 11:47:19;;;;;;;0.10;0.10;;;14.70;99.90;;;;;;5092452;28;20538;-64
2023/10/25 11:49:54;;;;;;;0.00;0.00;;;14.70;99.90;;;;;;5093562;28;20183;-64
2023/10/25 11:52:21;;;;;;;0.00;0.00;;;14.70;99.90;;;;;;5093534;28;20171;-64
2023/10/25 11:54:47;;;;;;;0.00;0.00;;;14.60;99.90;;;;;;5092236;28;20592;-65
2023/10/25 11:57:13;;;;;;;0.00;0.00;;;14.60;99.90;;;;;;5093619;28;20176;-64
2023/10/25 11:59:38;;;;;;;0.00;0.00;;;14.60;99.90;;;;;;5093469;28;21015;-65
2023/10/25 12:02:04;;;;;;;0.00;0.00;;;14.70;99.90;;;;;;5093460;28;20223;-64
2023/10/25 12:04:29;;;;;;;0.00;0.00;;;14.70;99.90;;;;;;5093276;28;20636;-64
2023/10/25 12:06:55;;;;;;;0.00;0.00;;;14.80;99.90;;;;;;5093307;28;20182;-64
2023/10/25 12:09:20;;;;;;;0.00;0.00;;;14.80;99.90;;;;;;5093231;28;20179;-63
2023/10/25 12:11:46;;;;;;;0.00;0.00;;;14.80;99.90;;;;;;5093168;28;20635;-64
2023/10/25 12:14:11;;;;;;;0.00;0.00;;;14.80;99.90;;;;;;5093063;28;20219;-64
2023/10/25 12:16:37;;;;;;;0.32;0.32;;;14.70;99.90;;;;;;5093090;28;20172;-64
2023/10/25 12:19:02;;;;;;;0.00;0.00;;;14.60;99.90;;;;;;5092990;28;20321;-64
2023/10/25 12:21:29;;;;;;;0.00;0.00;;;14.60;99.90;;;;;;5091831;28;20635;-64
2023/10/25 12:23:54;;;;;;;0.10;0.10;;;14.60;99.90;;;;;;5093014;28;20218;-64
2023/10/25 12:26:20;;;;;;;0.00;0.00;;;14.70;99.90;;;;;;5092765;28;20180;-63
2023/10/25 12:28:45;;;;;;;0.00;0.00;;;14.80;99.90;;;;;;5092751;28;20271;-63
2023/10/25 12:31:11;;;;;;;0.00;0.00;;;14.90;99.90;;;;;;5092756;28;20184;-64
2023/10/25 12:33:36;;;;;;;0.00;0.00;;;14.90;99.90;;;;;;5092361;28;20220;-64
2023/10/25 12:36:03;;;;;;;0.00;0.00;;;14.80;99.90;;;;;;5092605;28;20183;-64
2023/10/25 12:38:29;;;;;;;0.00;0.00;;;14.80;99.90;;;;;;5092670;28;20208;-64
2023/10/25 12:40:54;;;;;;;0.00;0.00;;;14.80;99.90;;;;;;5092821;28;20212;-64
2023/10/25 12:43:20;;;;;;;0.00;0.00;;;14.80;99.90;;;;;;5092467;28;20669;-64
2023/10/25 12:45:45;;;;;;;0.00;0.00;;;14.80;99.90;;;;;;5092634;28;20744;-64
2023/10/25 12:48:11;;;;;;;0.00;0.00;;;14.70;99.90;;;;;;5092543;28;20180;-64
2023/10/25 12:50:37;;;;;;;0.00;0.00;;;14.70;99.90;;;;;;5091182;28;20182;-64
2023/10/25 12:53:02;;;;;;;0.00;0.00;;;14.70;99.90;;;;;;5092387;28;20176;-64